FOOK

Details ICAO FOOK (MKU)
Name MAKOKOU
Region Gabon
Timezone Africa/Libreville (UTC+1.0)
Plans Departing 0
Arriving 0
Stats Elevation 1,726 ft / 526 m (AMSL)
Location 0.579213° 12.890908°
Runways 1
Magnetic Variation 0.925° W
Sunrise 2017-12-11 05:00:30 UTC / 2017-12-11 06:00:30 Local
Sunset 2017-12-11 17:05:46 UTC / 2017-12-11 18:05:46 Local
Advertisement - Login to hide

Runways

ID Width Length Bearing (true) Bearing (mag) Surface Threshold Offset Overrun Length
06 148 ft / 45 m 5,898 ft / 1,798 m 58.14° 59.07° Asphalt 0 ft / 0 m 0 ft / 0 m
24 148 ft / 45 m 5,898 ft / 1,798 m 238.14° 239.07° Asphalt 0 ft / 0 m 0 ft / 0 m

Map

Weather


0- 5 10 15 20 25 30 35+ Temperature / ° C

Clouds and Precipitation
Forecast for 2017-12-11 12:00 UTC. Updated 32 minutes ago

Ground ~20,000 ft ~40,000 ft Winds

METAR

FOOK 110900Z 00000KT 9999 BKN010TCU FEW018CB 26/22 Q1013

TAF

Not found

Frequencies

Tower 118.50 MHz INFO
Warning: Do not use this data for real-world aviation or navigation. No guarantee of current accuracy is given.